createdAt,value
2022-10-03T00:01:44.995Z,4.50
2022-10-03T00:04:49.156Z,4.17
2022-10-03T00:08:06.344Z,4.03
2022-10-03T00:11:30.172Z,4.00
2022-10-03T00:14:57.340Z,4.47
2022-10-03T00:17:53.137Z,4.72
2022-10-03T00:21:11.237Z,4.60
2022-10-03T00:24:36.153Z,4.50
2022-10-03T00:27:51.424Z,5.13
2022-10-03T00:30:32.317Z,5.23
2022-10-03T00:33:57.423Z,5.33
2022-10-03T00:36:57.359Z,4.80
2022-10-03T00:40:07.284Z,5.37
2022-10-03T00:43:03.185Z,5.07
2022-10-03T00:46:24.494Z,5.13
2022-10-03T00:49:39.295Z,5.93
2022-10-03T00:52:19.606Z,5.60
2022-10-03T00:55:11.148Z,5.32
2022-10-03T00:58:26.055Z,6.07
2022-10-03T01:01:32.169Z,6.87
2022-10-03T01:04:51.455Z,5.83
2022-10-03T01:08:13.198Z,5.95
2022-10-03T01:11:26.150Z,6.77
2022-10-03T01:14:39.095Z,6.83
2022-10-03T01:17:36.669Z,8.17
2022-10-03T01:21:19.475Z,7.57
2022-10-03T01:24:23.568Z,6.60
2022-10-03T01:30:50.062Z,7.17
2022-10-03T01:33:37.171Z,7.73
2022-10-03T01:36:41.496Z,7.57
2022-10-03T01:39:57.157Z,8.32
2022-10-03T01:43:03.843Z,8.07
2022-10-03T01:46:49.824Z,7.27
2022-10-03T01:49:59.938Z,8.20
2022-10-03T01:53:13.183Z,8.43
2022-10-03T01:56:32.851Z,8.40
2022-10-03T01:59:37.168Z,8.50
2022-10-03T02:02:42.068Z,8.70
2022-10-03T02:05:45.141Z,9.17
2022-10-03T02:08:45.865Z,9.67
2022-10-03T02:11:48.119Z,9.97
2022-10-03T02:14:46.104Z,9.33
2022-10-03T02:18:06.239Z,9.70
2022-10-03T02:21:38.355Z,9.50
2022-10-03T02:24:27.326Z,9.93
2022-10-03T02:27:23.352Z,11.43
2022-10-03T02:30:37.227Z,11.33
2022-10-03T02:33:52.378Z,9.40
2022-10-03T02:37:34.718Z,10.70
2022-10-03T02:40:50.376Z,9.67
2022-10-03T02:44:15.168Z,10.10
2022-10-03T02:47:17.853Z,10.30
2022-10-03T02:50:55.236Z,11.07
2022-10-03T02:53:46.289Z,11.57
2022-10-03T02:57:13.379Z,11.47
2022-10-03T02:59:52.344Z,10.93
2022-10-03T03:03:32.121Z,11.50
2022-10-03T03:06:20.846Z,13.43
2022-10-03T03:09:30.155Z,12.02
2022-10-03T03:12:50.854Z,12.10
2022-10-03T03:16:06.230Z,12.47
2022-10-03T03:19:49.170Z,11.37
2022-10-03T03:23:02.969Z,11.60
2022-10-03T03:26:00.988Z,11.70
2022-10-03T03:29:04.176Z,11.53
2022-10-03T03:32:22.050Z,11.48
2022-10-03T03:35:55.150Z,11.65
2022-10-03T03:38:58.409Z,11.83
2022-10-03T03:42:35.659Z,12.53
2022-10-03T03:45:33.198Z,12.13
2022-10-03T03:49:11.149Z,12.70
2022-10-03T03:52:24.011Z,15.13
2022-10-03T03:55:53.478Z,22.43
2022-10-03T03:59:01.330Z,22.97
2022-10-03T04:02:35.363Z,17.93
2022-10-03T04:05:18.401Z,19.57
2022-10-03T04:08:19.270Z,15.80
2022-10-03T04:11:18.914Z,15.63
2022-10-03T04:14:41.257Z,15.07
2022-10-03T04:17:50.298Z,13.33
2022-10-03T04:20:43.727Z,15.27
2022-10-03T04:24:02.821Z,14.80
2022-10-03T04:27:19.300Z,13.67
2022-10-03T04:30:36.526Z,16.57
2022-10-03T04:33:42.202Z,15.67
2022-10-03T04:36:25.962Z,14.43
2022-10-03T04:39:28.256Z,12.90
2022-10-03T04:42:41.026Z,16.43
2022-10-03T04:45:58.223Z,20.83
2022-10-03T04:52:31.243Z,33.13
2022-10-03T04:55:27.860Z,31.47
2022-10-03T04:58:24.170Z,28.30
2022-10-03T05:01:06.698Z,37.10
2022-10-03T05:04:34.333Z,31.90
2022-10-03T05:22:50.184Z,30.57
2022-10-03T05:25:41.414Z,26.02
2022-10-03T05:28:45.215Z,30.17
2022-10-03T05:31:33.860Z,27.67
2022-10-03T05:34:43.144Z,25.97
2022-10-03T05:38:05.811Z,38.47
2022-10-03T05:40:56.107Z,23.77
2022-10-03T05:44:22.134Z,25.00
2022-10-03T05:47:57.300Z,24.27
2022-10-03T05:50:59.886Z,38.27
2022-10-03T05:54:38.353Z,21.27
2022-10-03T05:57:44.307Z,27.80
2022-10-03T06:00:34.394Z,18.52
2022-10-03T06:03:32.577Z,28.17
2022-10-03T06:06:33.212Z,40.58
2022-10-03T06:09:39.992Z,32.30
2022-10-03T06:12:42.231Z,21.93
2022-10-03T06:15:57.149Z,18.38
2022-10-03T06:19:19.609Z,18.40
2022-10-03T06:23:05.940Z,17.88
2022-10-03T06:26:36.249Z,16.92
2022-10-03T06:29:54.546Z,18.13
2022-10-03T06:32:57.694Z,16.97
2022-10-03T06:36:34.047Z,14.65
2022-10-03T06:39:54.340Z,15.10
2022-10-03T06:47:12.380Z,16.45
2022-10-03T06:50:40.358Z,16.75
2022-10-03T06:53:43.354Z,22.10
2022-10-03T06:56:57.824Z,16.25
2022-10-03T07:01:16.866Z,15.43
2022-10-03T07:04:52.046Z,18.27
2022-10-03T07:08:32.718Z,20.10
2022-10-03T07:12:01.239Z,19.15
2022-10-03T07:14:46.561Z,14.57
2022-10-03T07:17:54.266Z,16.77
2022-10-03T07:21:32.473Z,16.50
2022-10-03T07:25:03.688Z,17.80
2022-10-03T07:28:33.688Z,17.02
2022-10-03T07:31:36.952Z,16.80
2022-10-03T07:35:55.317Z,14.80
2022-10-03T07:39:33.072Z,16.98
2022-10-03T07:42:50.294Z,15.93
2022-10-03T07:45:41.123Z,15.27
2022-10-03T07:49:11.491Z,15.13
2022-10-03T07:52:23.641Z,15.40
2022-10-03T07:55:35.259Z,15.07
2022-10-03T07:58:29.032Z,15.00
2022-10-03T08:01:54.510Z,15.63
2022-10-03T08:05:13.802Z,16.85
2022-10-03T08:08:59.184Z,16.40
2022-10-03T08:12:26.898Z,17.13
2022-10-03T08:15:28.479Z,14.88
2022-10-03T08:18:24.026Z,17.10
2022-10-03T08:21:21.381Z,11.63
2022-10-03T08:24:21.857Z,10.27
2022-10-03T08:27:51.378Z,9.93
2022-10-03T08:30:43.701Z,10.10
2022-10-03T08:33:48.558Z,10.27
2022-10-03T08:37:08.062Z,9.65
2022-10-03T08:40:27.114Z,9.30
2022-10-03T08:43:29.184Z,9.90
2022-10-03T08:46:44.680Z,10.98
2022-10-03T08:49:51.943Z,15.52
2022-10-03T08:53:09.426Z,12.57
2022-10-03T08:56:07.920Z,12.05
2022-10-03T08:59:04.149Z,12.10
2022-10-03T09:02:18.183Z,12.35
2022-10-03T09:05:42.275Z,12.25
2022-10-03T09:08:41.685Z,12.57
2022-10-03T09:11:36.475Z,11.93
2022-10-03T09:14:40.441Z,10.70
2022-10-03T09:18:00.297Z,11.43
2022-10-03T09:21:07.236Z,11.10
2022-10-03T09:24:14.294Z,10.38
2022-10-03T09:27:19.819Z,11.05
2022-10-03T09:30:43.305Z,12.15
2022-10-03T09:34:21.843Z,10.38
2022-10-03T09:37:11.664Z,9.90
2022-10-03T09:40:24.578Z,8.52
2022-10-03T09:43:45.367Z,8.32
2022-10-03T09:46:42.967Z,7.78
2022-10-03T09:49:48.309Z,8.82
2022-10-03T09:53:02.662Z,8.25
2022-10-03T09:55:47.402Z,7.18
2022-10-03T09:58:46.919Z,7.32
2022-10-03T10:01:46.501Z,7.65
2022-10-03T10:04:53.274Z,7.18
2022-10-03T10:08:26.264Z,7.13
2022-10-03T10:11:34.904Z,6.80
2022-10-03T10:14:46.340Z,6.70
2022-10-03T10:17:48.926Z,7.00
2022-10-03T10:20:50.215Z,6.53
2022-10-03T10:23:45.120Z,6.93
2022-10-03T10:27:15.231Z,7.38
2022-10-03T10:30:06.300Z,7.20
2022-10-03T10:33:17.351Z,8.38
2022-10-03T10:36:18.004Z,7.68
2022-10-03T10:39:38.280Z,7.15
2022-10-03T10:42:45.315Z,7.00
2022-10-03T10:46:04.318Z,6.70
2022-10-03T10:49:17.727Z,7.60
2022-10-03T10:52:13.309Z,8.10
2022-10-03T10:55:31.147Z,8.55
2022-10-03T10:58:45.272Z,7.40
2022-10-03T11:02:06.070Z,8.05
2022-10-03T11:05:30.542Z,8.15
2022-10-03T11:08:17.946Z,7.70
2022-10-03T11:11:58.349Z,7.50
2022-10-03T11:15:01.986Z,6.15
2022-10-03T11:17:48.328Z,7.85
2022-10-03T11:20:52.833Z,7.13
2022-10-03T11:24:36.376Z,7.90
2022-10-03T11:27:22.178Z,7.25
2022-10-03T11:30:14.260Z,6.38
2022-10-03T11:33:01.861Z,6.90
2022-10-03T11:35:56.257Z,6.82
2022-10-03T11:38:36.417Z,7.35
2022-10-03T11:41:48.279Z,7.10
2022-10-03T11:44:34.274Z,7.32
2022-10-03T11:47:50.441Z,6.82
2022-10-03T11:50:33.248Z,6.88
2022-10-03T11:53:47.300Z,6.13
2022-10-03T11:56:47.339Z,6.20
2022-10-03T11:59:39.297Z,7.25
2022-10-03T12:02:30.175Z,8.13
2022-10-03T12:05:30.618Z,7.47
2022-10-03T12:08:46.683Z,7.75
2022-10-03T12:11:47.298Z,7.63
2022-10-03T12:14:49.821Z,17.90
2022-10-03T12:17:49.019Z,13.07
2022-10-03T12:20:23.270Z,11.45
2022-10-03T12:23:25.593Z,10.88
2022-10-03T12:25:54.510Z,9.90
2022-10-03T12:28:37.428Z,8.00
2022-10-03T12:31:43.648Z,6.90
2022-10-03T12:35:38.571Z,7.53
2022-10-03T12:38:51.146Z,6.47
2022-10-03T12:42:02.627Z,6.35
2022-10-03T12:44:48.747Z,6.85
2022-10-03T12:47:56.180Z,6.68
2022-10-03T12:51:02.062Z,5.60
2022-10-03T12:53:59.449Z,5.30
2022-10-03T12:56:51.514Z,5.65
2022-10-03T13:00:10.512Z,5.15
2022-10-03T13:06:19.418Z,5.55
2022-10-03T13:09:11.423Z,5.15
2022-10-03T13:12:40.951Z,5.22
2022-10-03T13:15:48.241Z,4.25
2022-10-03T13:18:52.451Z,4.32
2022-10-03T13:21:55.800Z,4.43
2022-10-03T13:24:37.285Z,4.35
2022-10-03T13:27:32.592Z,4.50
2022-10-03T13:30:22.355Z,3.80
2022-10-03T13:33:19.340Z,4.30
2022-10-03T13:36:09.279Z,4.90
2022-10-03T13:39:11.442Z,5.63
2022-10-03T13:42:31.326Z,5.32
2022-10-03T13:45:21.327Z,5.07
2022-10-03T13:48:14.293Z,5.40
2022-10-03T13:50:52.975Z,4.60
2022-10-03T13:53:46.383Z,5.10
2022-10-03T13:57:03.208Z,4.75
2022-10-03T14:00:19.292Z,4.53
2022-10-03T14:03:17.499Z,4.25
2022-10-03T14:06:06.308Z,5.07
2022-10-03T14:09:26.165Z,4.47
2022-10-03T14:12:55.025Z,4.35
2022-10-03T14:15:50.628Z,4.10
2022-10-03T14:19:16.346Z,4.47
2022-10-03T14:22:38.352Z,4.00
2022-10-03T14:25:23.286Z,4.65
2022-10-03T14:28:17.247Z,4.43
2022-10-03T14:31:22.166Z,4.10
2022-10-03T14:33:58.786Z,4.30
2022-10-03T14:36:53.372Z,4.00
2022-10-03T14:39:39.721Z,3.92
2022-10-03T14:42:47.307Z,4.28
2022-10-03T14:45:18.931Z,3.92
2022-10-03T14:48:06.362Z,3.70
2022-10-03T14:50:39.223Z,4.60
2022-10-03T14:53:33.306Z,4.53
2022-10-03T14:56:11.812Z,4.28
2022-10-03T14:58:55.337Z,4.30
2022-10-03T15:01:28.748Z,3.78
2022-10-03T15:04:37.382Z,3.88
2022-10-03T15:07:06.406Z,4.03
2022-10-03T15:09:56.374Z,3.80
2022-10-03T15:12:31.261Z,3.85
2022-10-03T15:15:25.314Z,4.35
2022-10-03T15:17:56.855Z,4.00
2022-10-03T15:20:48.329Z,4.40
2022-10-03T15:23:39.926Z,4.00
2022-10-03T15:26:25.370Z,4.03
2022-10-03T15:28:59.802Z,3.72
2022-10-03T15:31:49.501Z,3.72
2022-10-03T15:34:33.255Z,4.18
2022-10-03T15:37:30.381Z,4.50
2022-10-03T15:40:04.339Z,4.80
2022-10-03T15:42:49.353Z,4.45
2022-10-03T15:45:29.492Z,5.40
2022-10-03T15:48:09.291Z,4.10
2022-10-03T15:50:43.625Z,4.75
2022-10-03T15:53:42.428Z,4.78
2022-10-03T15:56:46.244Z,7.25
2022-10-03T15:59:40.365Z,5.47
2022-10-03T16:02:20.128Z,4.55
2022-10-03T16:04:58.342Z,4.22
2022-10-03T16:08:03.326Z,4.60
2022-10-03T16:11:11.642Z,4.93
2022-10-03T16:13:53.502Z,4.88
2022-10-03T16:16:49.418Z,4.80
2022-10-03T16:19:45.659Z,5.20
2022-10-03T16:22:31.462Z,5.00
2022-10-03T16:25:39.378Z,4.15
2022-10-03T16:28:21.523Z,4.45
2022-10-03T16:30:58.587Z,4.97
2022-10-03T16:33:49.360Z,4.35
2022-10-03T16:36:21.798Z,4.22
2022-10-03T16:39:08.602Z,4.45
2022-10-03T16:41:44.157Z,4.50
2022-10-03T16:44:57.309Z,4.10
2022-10-03T16:47:36.566Z,4.88
2022-10-03T16:50:34.579Z,4.85
2022-10-03T16:53:12.509Z,5.03
2022-10-03T16:56:02.350Z,5.00
2022-10-03T16:58:33.404Z,5.38
2022-10-03T17:01:49.397Z,5.30
2022-10-03T17:04:24.686Z,4.55
2022-10-03T17:07:06.347Z,5.10
2022-10-03T17:09:43.965Z,4.88
2022-10-03T17:12:53.763Z,4.93
2022-10-03T17:15:34.489Z,4.97
2022-10-03T17:18:44.293Z,4.82
2022-10-03T17:21:26.074Z,5.65
2022-10-03T17:24:17.402Z,5.70
2022-10-03T17:26:50.138Z,5.55
2022-10-03T17:29:49.343Z,7.30
2022-10-03T17:32:32.407Z,6.97
2022-10-03T17:35:13.313Z,6.67
2022-10-03T17:38:37.198Z,7.20
2022-10-03T17:41:35.327Z,7.22
2022-10-03T17:44:37.222Z,22.73
2022-10-03T17:47:33.325Z,13.00
2022-10-03T17:50:19.112Z,9.07
2022-10-03T17:52:56.327Z,7.67
2022-10-03T17:55:34.867Z,11.50
2022-10-03T17:58:24.299Z,8.77
2022-10-03T18:01:08.806Z,7.43
2022-10-03T18:03:56.372Z,7.53
2022-10-03T18:06:45.349Z,8.40
2022-10-03T18:09:22.342Z,6.97
2022-10-03T18:11:50.875Z,7.83
2022-10-03T18:14:47.315Z,7.53
2022-10-03T18:17:32.323Z,7.50
2022-10-03T18:20:25.501Z,7.17
2022-10-03T18:23:03.217Z,7.83
2022-10-03T18:26:19.574Z,7.30
2022-10-03T18:29:13.492Z,7.47
2022-10-03T18:31:53.480Z,8.73
2022-10-03T18:34:36.377Z,7.13
2022-10-03T18:37:30.393Z,7.07
2022-10-03T18:39:59.229Z,8.03
2022-10-03T18:42:29.801Z,9.83
2022-10-03T18:45:06.409Z,10.60
2022-10-03T18:47:44.353Z,11.97
2022-10-03T18:50:53.530Z,10.43
2022-10-03T18:53:35.165Z,10.57
2022-10-03T18:56:17.536Z,10.00
2022-10-03T18:59:10.094Z,11.23
2022-10-03T19:01:58.826Z,10.83
2022-10-03T19:04:58.255Z,9.90
2022-10-03T19:07:36.560Z,8.93
2022-10-03T19:10:50.917Z,9.63
2022-10-03T19:13:51.755Z,9.53
2022-10-03T19:17:01.659Z,9.60
2022-10-03T19:20:01.465Z,9.87
2022-10-03T19:22:33.215Z,9.40
2022-10-03T19:25:21.054Z,8.63
2022-10-03T19:28:24.505Z,8.33
2022-10-03T19:31:23.465Z,8.00
2022-10-03T19:33:57.473Z,8.57
2022-10-03T19:36:36.028Z,8.07
2022-10-03T19:39:06.474Z,8.17
2022-10-03T19:41:56.972Z,8.07
2022-10-03T19:44:29.154Z,8.17
2022-10-03T19:47:30.311Z,8.30
2022-10-03T19:50:31.208Z,8.10
2022-10-03T19:53:07.604Z,8.00
2022-10-03T19:55:41.535Z,8.20
2022-10-03T19:58:27.941Z,8.37
2022-10-03T20:01:00.436Z,8.77
2022-10-03T20:04:01.007Z,8.13
2022-10-03T20:06:41.502Z,8.13
2022-10-03T20:09:34.080Z,7.93
2022-10-03T20:12:12.855Z,8.57
2022-10-03T20:14:59.458Z,9.20
2022-10-03T20:17:30.106Z,7.90
2022-10-03T20:20:14.512Z,9.17
2022-10-03T20:22:42.971Z,7.87
2022-10-03T20:25:32.485Z,7.87
2022-10-03T20:28:06.092Z,8.10
2022-10-03T20:30:56.012Z,6.77
2022-10-03T20:33:35.660Z,7.90
2022-10-03T20:36:35.273Z,8.93
2022-10-03T20:39:17.828Z,8.53
2022-10-03T20:42:22.577Z,8.37
2022-10-03T20:45:03.524Z,9.30
2022-10-03T20:48:05.263Z,9.17
2022-10-03T20:50:44.486Z,10.33
2022-10-03T20:53:31.237Z,9.27
2022-10-03T20:56:06.917Z,10.37
2022-10-03T20:58:56.351Z,9.67
2022-10-03T21:01:26.861Z,11.53
2022-10-03T21:04:25.469Z,10.07
2022-10-03T21:07:13.994Z,12.10
2022-10-03T21:10:03.200Z,13.77
2022-10-03T21:12:51.817Z,15.57
2022-10-03T21:15:55.239Z,11.93
2022-10-03T21:18:30.374Z,12.00
2022-10-03T21:21:10.290Z,9.73
2022-10-03T21:23:44.577Z,10.43
2022-10-03T21:26:19.213Z,16.93
2022-10-03T21:28:47.034Z,11.60
2022-10-03T21:31:16.677Z,10.57
2022-10-03T21:34:10.606Z,10.23
2022-10-03T21:36:52.263Z,9.63
2022-10-03T21:39:55.578Z,9.80
2022-10-03T21:42:30.328Z,9.90
2022-10-03T21:45:26.885Z,9.53
2022-10-03T21:48:09.227Z,9.37
2022-10-03T21:51:09.047Z,9.73
2022-10-03T21:53:49.119Z,8.93
2022-10-03T21:56:43.867Z,8.50
2022-10-03T21:59:52.878Z,8.90
2022-10-03T22:02:34.857Z,8.90
2022-10-03T22:05:35.486Z,10.17
2022-10-03T22:08:30.887Z,8.23
2022-10-03T22:11:27.983Z,7.60
2022-10-03T22:14:19.864Z,7.30
2022-10-03T22:17:15.303Z,7.87
2022-10-03T22:19:55.213Z,6.53
2022-10-03T22:22:43.393Z,7.17
2022-10-03T22:25:26.216Z,7.30
2022-10-03T22:28:08.971Z,6.53
2022-10-03T22:30:52.261Z,8.60
2022-10-03T22:33:32.666Z,6.93
2022-10-03T22:36:11.220Z,7.27
2022-10-03T22:38:43.906Z,6.50
2022-10-03T22:41:22.201Z,6.33
2022-10-03T22:43:50.918Z,6.17
2022-10-03T22:46:38.338Z,6.10
2022-10-03T22:49:12.293Z,6.00
2022-10-03T22:51:50.210Z,5.90
2022-10-03T22:54:20.452Z,6.40
2022-10-03T22:56:47.764Z,6.63
2022-10-03T22:59:26.245Z,6.27
2022-10-03T23:01:59.312Z,5.50
2022-10-03T23:04:37.796Z,6.10
2022-10-03T23:07:32.257Z,5.40
2022-10-03T23:10:30.758Z,4.97
2022-10-03T23:13:43.786Z,5.07
2022-10-03T23:16:52.817Z,5.53
2022-10-03T23:19:42.006Z,5.50
2022-10-03T23:22:26.859Z,5.40
2022-10-03T23:25:06.665Z,6.03
2022-10-03T23:28:10.956Z,6.63
2022-10-03T23:30:49.011Z,5.40
2022-10-03T23:33:38.885Z,5.60
2022-10-03T23:36:18.645Z,5.17
2022-10-03T23:38:52.954Z,5.77
2022-10-03T23:41:40.721Z,5.50
2022-10-03T23:44:35.963Z,6.10
2022-10-03T23:47:06.655Z,5.83
2022-10-03T23:49:43.886Z,6.13
2022-10-03T23:52:25.371Z,5.70
2022-10-03T23:55:05.965Z,5.43
2022-10-03T23:57:43.178Z,6.03
